KIPL

Imperial County Airport

Imperial, California, USA
METAR KIPL 162353Z AUTO 32003KT 10SM FEW110 16/M01 A2966 RMK AO2 SLP043 60000 T01561006 10161 20139 56003 TSNO
Observed Flight Rules
Dec-16 @ 23:53 UTC (38 minutes ago) Visual Flight Rules
Wind Visibility Clouds
320° at 3 knots 10 miles
  • Few at 11,000' AGL
Temperatures Readings
Current 16°C / 61°F
Dewpoint -1°C / 30°F
Humidity 31%
Altimeter 29.66" Hg
Pressure 1004.3 hPa
Elevation -17
METAR KIPL 162353Z AUTO 32003KT 10SM FEW110 16/M01 A2966 RMK AO2 SLP043 60000 T01561006 10161 20139 56003 TSNO
Observed Flight Rules
Dec-16 @ 23:53 UTC
(38 minutes ago)
VFR
Wind Visibility
320° at 3 knots 10 miles
Clouds
  • Few at 11,000' AGL
Temperature Dewpoint
16°C / 61°F -1°C / 30°F
Humidity Altimeter Pressure
31% 29.66" Hg 1004.3 hPa